createdAt,value
2018-12-22T00:02:07.069Z,1012.6
2018-12-22T00:07:07.095Z,1012.6
2018-12-22T00:12:07.079Z,1012.6
2018-12-22T00:17:07.089Z,1012.5
2018-12-22T00:22:07.058Z,1012.7
2018-12-22T00:27:07.095Z,1012.7
2018-12-22T00:32:07.081Z,1012.7
2018-12-22T00:37:07.079Z,1012.7
2018-12-22T00:42:07.102Z,1012.7
2018-12-22T00:47:07.090Z,1012.8
2018-12-22T00:52:07.073Z,1012.7
2018-12-22T00:57:07.103Z,1012.7
2018-12-22T01:02:07.116Z,1012.8
2018-12-22T01:07:07.213Z,1012.7
2018-12-22T01:12:07.124Z,1012.8
2018-12-22T01:17:07.124Z,1012.8
2018-12-22T01:22:07.121Z,1013
2018-12-22T01:27:07.125Z,1012.9
2018-12-22T01:32:07.107Z,1013
2018-12-22T01:37:07.125Z,1013
2018-12-22T01:42:07.130Z,1013.1
2018-12-22T01:47:07.161Z,1012.9
2018-12-22T01:52:07.215Z,1012.8
2018-12-22T01:57:07.095Z,1012.8
2018-12-22T02:02:07.255Z,1012.7
2018-12-22T02:07:07.145Z,1012.9
2018-12-22T02:12:07.261Z,1013
2018-12-22T02:17:07.104Z,1013.1
2018-12-22T02:22:07.136Z,1012.9
2018-12-22T02:27:07.136Z,1013.1
2018-12-22T02:32:07.139Z,1013.1
2018-12-22T02:37:07.145Z,1013
2018-12-22T02:42:07.161Z,1013.1
2018-12-22T02:47:07.135Z,1013
2018-12-22T02:52:07.336Z,1013
2018-12-22T02:57:07.154Z,1013.2
2018-12-22T03:02:07.162Z,1013.1
2018-12-22T03:07:07.161Z,1013.2
2018-12-22T03:12:07.123Z,1013.2
2018-12-22T03:17:07.154Z,1013.2
2018-12-22T03:22:07.179Z,1013.1
2018-12-22T03:27:07.145Z,1013.1
2018-12-22T03:32:07.166Z,1013.1
2018-12-22T03:37:07.154Z,1013
2018-12-22T03:42:07.190Z,1012.9
2018-12-22T03:47:07.231Z,1013.1
2018-12-22T03:52:07.239Z,1013
2018-12-22T03:57:07.179Z,1013
2018-12-22T04:02:07.194Z,1012.9
2018-12-22T04:07:07.179Z,1012.8
2018-12-22T04:12:07.192Z,1012.9
2018-12-22T04:17:07.154Z,1012.9
2018-12-22T04:22:07.176Z,1012.9
2018-12-22T04:27:07.172Z,1013
2018-12-22T04:32:07.193Z,1013.1
2018-12-22T04:37:07.206Z,1013.3
2018-12-22T04:42:07.206Z,1013.4
2018-12-22T04:47:07.238Z,1013.2
2018-12-22T04:52:07.208Z,1013.2
2018-12-22T04:57:07.245Z,1013.4
2018-12-22T05:02:07.222Z,1013.3
2018-12-22T05:07:07.210Z,1013
2018-12-22T05:12:07.197Z,1012.9
2018-12-22T05:17:07.222Z,1012.9
2018-12-22T05:22:07.230Z,1013.1
2018-12-22T05:27:07.226Z,1013
2018-12-22T05:32:07.222Z,1012.7
2018-12-22T05:37:07.230Z,1012.6
2018-12-22T05:42:07.214Z,1012.9
2018-12-22T05:47:07.214Z,1013
2018-12-22T05:52:07.230Z,1012.9
2018-12-22T05:57:07.240Z,1012.9
2018-12-22T06:02:07.266Z,1012.7
2018-12-22T06:07:07.240Z,1012.6
2018-12-22T06:12:07.247Z,1012.9
2018-12-22T06:17:07.274Z,1012.6
2018-12-22T06:22:07.260Z,1012.7
2018-12-22T06:27:07.246Z,1012.5
2018-12-22T06:32:07.235Z,1012.5
2018-12-22T06:37:07.290Z,1012.7
2018-12-22T06:42:07.265Z,1012.7
2018-12-22T06:47:07.256Z,1012.8
2018-12-22T06:52:07.256Z,1012.7
2018-12-22T06:57:07.253Z,1012.8
2018-12-22T07:02:07.285Z,1012.8
2018-12-22T07:07:07.294Z,1012.9
2018-12-22T07:12:07.280Z,1013.2
2018-12-22T07:17:07.326Z,1013.3
2018-12-22T07:22:07.303Z,1013.4
2018-12-22T07:27:07.271Z,1013.7
2018-12-22T07:32:07.424Z,1013.9
2018-12-22T07:37:07.311Z,1013.9
2018-12-22T07:42:07.278Z,1013.8
2018-12-22T07:47:07.673Z,1013.8
2018-12-22T07:52:07.270Z,1013.6
2018-12-22T07:57:07.284Z,1013.7
2018-12-22T08:02:07.323Z,1013.9
2018-12-22T08:07:07.299Z,1014
2018-12-22T08:12:07.351Z,1014
2018-12-22T08:17:07.328Z,1014
2018-12-22T08:22:09.440Z,1013.9
2018-12-22T08:27:07.376Z,1013.7
2018-12-22T08:32:07.352Z,1013.7
2018-12-22T08:37:08.697Z,1013.6
2018-12-22T08:42:09.297Z,1013.6
2018-12-22T08:47:09.078Z,1013.7
2018-12-22T08:52:07.951Z,1013.7
2018-12-22T08:57:08.301Z,1013.7
2018-12-22T09:02:09.646Z,1013.9
2018-12-22T09:07:10.429Z,1013.8
2018-12-22T09:12:10.585Z,1014
2018-12-22T09:17:10.140Z,1013.8
2018-12-22T09:22:10.874Z,1013.9
2018-12-22T09:27:10.086Z,1013.7
2018-12-22T09:32:08.916Z,1013.6
2018-12-22T09:37:08.877Z,1013.7
2018-12-22T09:42:08.954Z,1013.6
2018-12-22T09:47:08.960Z,1013.7
2018-12-22T09:52:08.923Z,1013.8
2018-12-22T09:57:08.876Z,1013.7
2018-12-22T10:02:08.890Z,1013.8
2018-12-22T10:07:08.957Z,1013.9
2018-12-22T10:12:08.970Z,1013.8
2018-12-22T10:17:08.901Z,1014
2018-12-22T10:22:08.963Z,1013.8
2018-12-22T10:27:08.861Z,1014
2018-12-22T10:32:08.887Z,1014
2018-12-22T10:37:08.900Z,1014
2018-12-22T10:42:08.870Z,1013.9
2018-12-22T10:47:09.623Z,1013.8
2018-12-22T10:52:08.939Z,1013.9
2018-12-22T10:57:09.009Z,1013.9
2018-12-22T11:02:08.941Z,1013.9
2018-12-22T11:07:08.993Z,1014
2018-12-22T11:12:08.958Z,1013.9
2018-12-22T11:17:08.913Z,1013.9
2018-12-22T11:22:08.961Z,1014
2018-12-22T11:27:08.951Z,1014
2018-12-22T11:32:08.967Z,1014
2018-12-22T11:37:09.069Z,1014
2018-12-22T11:42:09.964Z,1014.2
2018-12-22T11:47:09.237Z,1014.2
2018-12-22T11:52:09.217Z,1014.3
2018-12-22T11:57:08.957Z,1014.4
2018-12-22T12:02:10.631Z,1014.6
2018-12-22T12:07:08.999Z,1015
2018-12-22T12:12:08.985Z,1015.2
2018-12-22T12:17:09.103Z,1015.1
2018-12-22T12:22:09.150Z,1015.1
2018-12-22T12:27:09.134Z,1015.3
2018-12-22T12:32:09.441Z,1015.2
2018-12-22T12:37:09.447Z,1015.2
2018-12-22T12:42:09.141Z,1015.1
2018-12-22T12:47:09.223Z,1014.9
2018-12-22T12:52:09.265Z,1015.1
2018-12-22T12:57:11.829Z,1015.1
2018-12-22T13:02:10.180Z,1014.9
2018-12-22T13:07:09.148Z,1014.9
2018-12-22T13:12:09.162Z,1015
2018-12-22T13:17:09.229Z,1015
2018-12-22T13:22:09.171Z,1015.3
2018-12-22T13:27:09.148Z,1015.6
2018-12-22T13:32:10.632Z,1015.5
2018-12-22T13:37:09.177Z,1015.7
2018-12-22T13:42:09.187Z,1016
2018-12-22T13:47:09.627Z,1016.1
2018-12-22T13:52:09.189Z,1016.3
2018-12-22T13:57:09.142Z,1017.4
2018-12-22T14:02:18.691Z,1017.3
2018-12-22T14:07:12.006Z,1016.9
2018-12-22T14:12:09.217Z,1016.9
2018-12-22T14:17:09.247Z,1017
2018-12-22T14:22:12.215Z,1017.1
2018-12-22T14:27:09.775Z,1017.1
2018-12-22T14:32:09.605Z,1017.2
2018-12-22T14:37:09.447Z,1017.4
2018-12-22T14:42:09.290Z,1017.4
2018-12-22T14:47:12.192Z,1017.6
2018-12-22T14:52:09.279Z,1017.6
2018-12-22T14:57:09.193Z,1017.7
2018-12-22T15:02:09.277Z,1017.7
2018-12-22T15:07:09.367Z,1017.7
2018-12-22T15:12:09.363Z,1017.5
2018-12-22T15:17:09.258Z,1017.6
2018-12-22T15:22:09.239Z,1017.8
2018-12-22T15:27:09.415Z,1017.7
2018-12-22T15:32:10.745Z,1017.7
2018-12-22T15:37:09.485Z,1017.6
2018-12-22T15:42:09.258Z,1017.6
2018-12-22T15:47:10.571Z,1017.7
2018-12-22T15:52:09.281Z,1017.9
2018-12-22T15:57:09.245Z,1018.2
2018-12-22T16:02:12.199Z,1018.4
2018-12-22T16:07:09.316Z,1018.4
2018-12-22T16:12:09.461Z,1018.7
2018-12-22T16:17:12.269Z,1018.8
2018-12-22T16:22:14.891Z,1018.7
2018-12-22T16:27:12.545Z,1019.1
2018-12-22T16:32:09.280Z,1019.5
2018-12-22T16:37:09.923Z,1019.3
2018-12-22T16:42:09.551Z,1019.3
2018-12-22T16:47:13.245Z,1019.4
2018-12-22T16:52:09.279Z,1019.5
2018-12-22T16:57:09.865Z,1019.6
2018-12-22T17:02:09.913Z,1019.6
2018-12-22T17:07:12.208Z,1019.6
2018-12-22T17:12:09.303Z,1019.7
2018-12-22T17:17:09.292Z,1019.9
2018-12-22T17:22:10.514Z,1019.9
2018-12-22T17:27:12.437Z,1020
2018-12-22T17:32:10.810Z,1020.1
2018-12-22T17:37:09.383Z,1020.1
2018-12-22T17:42:10.440Z,1020.1
2018-12-22T17:47:10.680Z,1020
2018-12-22T17:52:12.774Z,1020.1
2018-12-22T17:57:12.237Z,1020
2018-12-22T18:02:09.364Z,1020
2018-12-22T18:07:09.385Z,1020.1
2018-12-22T18:12:09.888Z,1020.1
2018-12-22T18:17:12.282Z,1020.1
2018-12-22T18:22:09.313Z,1020.1
2018-12-22T18:27:09.373Z,1020.1
2018-12-22T18:32:09.470Z,1020.3
2018-12-22T18:37:09.479Z,1020.5
2018-12-22T18:42:09.480Z,1020.7
2018-12-22T18:47:09.954Z,1020.5
2018-12-22T18:52:09.382Z,1020.3
2018-12-22T18:57:10.975Z,1020.4
2018-12-22T19:02:10.278Z,1020.3
2018-12-22T19:07:10.564Z,1020.4
2018-12-22T19:12:09.448Z,1020.3
2018-12-22T19:17:09.507Z,1020.2
2018-12-22T19:22:13.472Z,1020.4
2018-12-22T19:27:11.005Z,1020.4
2018-12-22T19:32:09.557Z,1020.5
2018-12-22T19:37:09.431Z,1020.4
2018-12-22T19:42:09.407Z,1020.7
2018-12-22T19:47:10.081Z,1020.9
2018-12-22T19:52:09.510Z,1020.6
2018-12-22T19:57:09.538Z,1020.8
2018-12-22T20:02:09.396Z,1020.8
2018-12-22T20:07:09.368Z,1020.8
2018-12-22T20:12:09.509Z,1021
2018-12-22T20:17:10.377Z,1020.9
2018-12-22T20:22:10.350Z,1020.9
2018-12-22T20:27:10.836Z,1020.9
2018-12-22T20:32:10.293Z,1021
2018-12-22T20:37:10.568Z,1021
2018-12-22T20:42:11.049Z,1021.1
2018-12-22T20:47:13.005Z,1021.2
2018-12-22T20:52:10.533Z,1021.2
2018-12-22T20:57:10.529Z,1021.2
2018-12-22T21:02:10.484Z,1021.3
2018-12-22T21:07:11.641Z,1021.3
2018-12-22T21:12:10.350Z,1021.3
2018-12-22T21:17:10.411Z,1021.5
2018-12-22T21:22:19.186Z,1021.6
2018-12-22T21:27:10.496Z,1021.5
2018-12-22T21:32:11.868Z,1021.6
2018-12-22T21:37:10.654Z,1021.7
2018-12-22T21:42:11.714Z,1021.7
2018-12-22T21:47:11.161Z,1021.9
2018-12-22T21:52:14.669Z,1021.9
2018-12-22T21:57:10.478Z,1021.7
2018-12-22T22:02:10.537Z,1021.9
2018-12-22T22:07:10.670Z,1021.8
2018-12-22T22:12:10.481Z,1021.9
2018-12-22T22:17:10.803Z,1021.7
2018-12-22T22:22:10.539Z,1021.7
2018-12-22T22:27:12.980Z,1021.8
2018-12-22T22:32:11.877Z,1021.9
2018-12-22T22:37:13.550Z,1021.8
2018-12-22T22:42:10.383Z,1021.8
2018-12-22T22:47:19.310Z,1021.9
2018-12-22T22:52:11.115Z,1021.8
2018-12-22T22:57:10.727Z,1021.8
2018-12-22T23:02:10.699Z,1021.8
2018-12-22T23:07:10.718Z,1021.6
2018-12-22T23:12:10.693Z,1021.6
2018-12-22T23:17:10.685Z,1021.8
2018-12-22T23:22:10.742Z,1021.8
2018-12-22T23:27:10.683Z,1021.9
2018-12-22T23:32:10.790Z,1021.9
2018-12-22T23:37:10.697Z,1022
2018-12-22T23:42:10.688Z,1022
2018-12-22T23:47:10.718Z,1022
2018-12-22T23:52:10.806Z,1022.1
2018-12-22T23:57:10.775Z,1022
